Minneapolis, MN (55409)

2:26 AM CST on February 08, 2016 (GMT -0600)
Kingfield | | Change Station
CLOSE
Current Station
Personal Weather Station
Location: Minneapolis, MN
Elevation: 879 ft
Nearby Weather Stations
Active Advisory: Winter Weather Advisory

Elev 879 ft 44.93 °N, 93.29 °W | Updated 4 minutes ago

Snow
Snow
15.3 °F
Feels Like 10 °F
N
3.1
Wind Variable Wind from NW
Gusts 5.4 mph

Today
High -- | Low -- °F
--% Chance of Precip.
Yesterday
High -- | Low -- °F
Precip. -- in
Pressure 29.79 in
Visibility 6.0 miles
Clouds Few 1900 ft
Scattered Clouds 2600 ft
Overcast 3300 ft
Windchill 10 °F
Dew Point 4 °F
Humidity 60%
Rainfall 0.00 in
Snow Depth Not available.
7:24 AM 5:30 PM
Waning Crescent, 0% visible
SPECI KMSP 080814Z 31021G27KT 6SM -SN FEW019 SCT026 OVC033 M09/M13 A2979 RMK AO2 PK WND 30027/0814 DRSN P0000 T10941133
Pressure 29.79 in
Visibility 6.0 miles
Clouds Few 1900 ft
Scattered Clouds 2600 ft
Overcast 3300 ft
Windchill 10 °F
Dew Point 4 °F
Humidity 60%
Rainfall 0.00 in
Snow Depth Not available.
7:24 AM 5:30 PM
Waning Crescent, 0% visible
SPECI KMSP 080814Z 31021G27KT 6SM -SN FEW019 SCT026 OVC033 M09/M13 A2979 RMK AO2 PK WND 30027/0814 DRSN P0000 T10941133

10-Day Weather Forecast

Almanac

Astronomy

Feb. 08, 2016 Rise Set
Actual Time
Civil Twilight
Nautical Twilight
Astronomical Twilight
Moon
Length of Visible Light
Length of Day
Tomorrow will be .
, % of the Moon is Illuminated

Today's Extremes

State Highs State Lows

Community

WunderPhotos

Upload Photos

1,891,412 photos uploaded!

WunderBlog® & News

Nearby

Air Quality

  Air Quality AQ Index Pollutant
Not available.

Snow Depth

Station Depth Elevation

Earthquake Activity

City Distance Mag. Time & Date
Minimum magnitude displayed is 2.5.

Coastal Water Temperatures

Place Temperature

Stations

Nearby Weather Stations

Station Location Temp. Windchill Dew Point Humidity Wind Precip. Elev Updated Type
                   

Watches & Warnings

Winter Weather Advisory
Issued: 8:21 PM CST Feb. 7, 2016 – National Weather Service

... Winter Weather Advisory remains in effect until noon CST
Monday...

* expect occasional light snow through Monday morning.

* Total snow accumulations of up to 1 inch are expected.

* Winds gusting as high as 40 mph will cause widespread blowing
and drifting snow.

* Plan on slippery Road conditions.

Precautionary/preparedness actions...

A Winter Weather Advisory for snow means periods of snow will
cause primarily travel difficulties. Be prepared for snow covered
roads and limited visibilities... and use caution while driving.
The latest Road conditions for the state you are calling from can
be obtained by calling 5 1 1.